Waterford, Minnesota
Current Conditions -  °F | °C
As of 10:34 AM on Saturday 25 Oct 2014 (Local Time) from KSYN Reporting Station
Clear Clear  
Wind Chill: 56°   Ceiling: Unl
Heat Index: 56°   Visibility: 10mi
Dew Point: 37°   Wind: 9mph
Humidity: 48%   Direction: 300°WNW
Pressure: 30.05"   Gusts: NA
Location:  44.4726°N, 93.1785°W
Report Text: KSYN 251534Z AUTO 30008KT 10SM CLR 13/03 A3005 RMK AO2 T01330026
Loading
Personal Weather Stations






























Interactive Weather Map
Tropical Storm Tracking
New forecast layout! Learn more

10-Day Weather Forecast

Advertisements
Track Severe Weather on mobile